TimeCST,TemperatureF,Dew PointF,Humidity,Sea Level PressureIn,VisibilityMPH,Wind Direction,Wind SpeedMPH,Gust SpeedMPH,PrecipitationIn,Events,Conditions,WindDirDegrees,DateUTC
12:00 AM,68,59,67,29.82,12,East,6.9,,,,Clear,80,2013-02-28 06:00:00
12:00 AM,68.0,59.0,73,29.98,-9999.0,East,6.9,-,N/A,,Clear,80,2013-02-28 06:00:00
1:00 AM,68.0,59.0,73,29.96,-9999.0,East,5.8,-,N/A,,Clear,90,2013-02-28 07:00:00
2:00 AM,68.0,59.0,73,29.95,6.2,ENE,6.9,-,N/A,,Mostly Cloudy,70,2013-02-28 08:00:00
3:00 AM,67,58,64,29.79,12,ENE,8.1,,,,Clear,70,2013-02-28 09:00:00
3:00 AM,68.0,57.2,68,29.96,6.2,ENE,8.1,-,N/A,,Mostly Cloudy,70,2013-02-28 09:00:00
4:00 AM,68.0,59.0,73,29.96,6.2,ENE,5.8,-,N/A,,Mostly Cloudy,60,2013-02-28 10:00:00
5:00 AM,66.2,57.2,73,29.97,-9999.0,ENE,9.2,-,N/A,,Clear,70,2013-02-28 11:00:00
6:00 AM,66,55,60,29.86,12,NE,8.1,,,,Overcast,50,2013-02-28 12:00:00
6:00 AM,66.2,55.4,68,30.00,-9999.0,NE,8.1,-,N/A,,Clear,50,2013-02-28 12:00:00
7:00 AM,71.6,57.2,60,30.00,-9999.0,NE,10.4,-,N/A,,Clear,40,2013-02-28 13:00:00
8:00 AM,75.2,57.2,53,30.01,-9999.0,East,9.2,-,N/A,,Clear,80,2013-02-28 14:00:00
9:00 AM,81,56,31,29.84,12,ESE,11.5,,,,Clear,110,2013-02-28 15:00:00
9:00 AM,80.6,55.4,42,30.01,-9999.0,ESE,11.5,-,N/A,,Clear,110,2013-02-28 15:00:00
10:00 AM,82.4,55.4,39,30.01,-9999.0,ESE,11.5,-,N/A,,Clear,110,2013-02-28 16:00:00
11:00 AM,84.2,55.4,37,29.98,6.2,ESE,12.7,-,N/A,,Partly Cloudy,120,2013-02-28 17:00:00
12:00 PM,86,56,25,29.77,12,ESE,10.4,,,,Partly Cloudy,110,2013-02-28 18:00:00
12:00 PM,86.0,55.4,35,29.95,6.2,ESE,10.4,-,N/A,,Scattered Clouds,110,2013-02-28 18:00:00
1:00 PM,86.0,57.2,37,29.93,6.2,East,12.7,-,N/A,,Scattered Clouds,100,2013-02-28 19:00:00
2:00 PM,84.2,59.0,42,29.90,6.2,East,11.5,-,N/A,,Scattered Clouds,90,2013-02-28 20:00:00
3:00 PM,82,67,52,29.73,12,East,24.2,,,,Partly Cloudy,100,2013-02-28 21:00:00
3:00 PM,82.4,59.0,45,29.89,6.2,East,12.7,24.2,N/A,,Scattered Clouds,100,2013-02-28 21:00:00
4:00 PM,80.6,59.0,48,29.90,6.2,ESE,10.4,-,N/A,,Scattered Clouds,110,2013-02-28 22:00:00
5:00 PM,73.4,59.0,61,29.92,6.2,ESE,15.0,-,N/A,,Scattered Clouds,110,2013-02-28 23:00:00
6:00 PM,71,58,53,29.83,12,ESE,12.7,,,,Partly Cloudy,120,2013-03-01 00:00:00
6:00 PM,71.6,57.2,60,29.93,6.2,ESE,12.7,-,N/A,,Mostly Cloudy,120,2013-03-01 00:00:00
7:00 PM,69.8,57.2,64,29.97,6.2,East,10.4,-,N/A,,Mostly Cloudy,90,2013-03-01 01:00:00
8:00 PM,69.8,59.0,68,29.99,6.2,ESE,10.4,-,N/A,,Scattered Clouds,110,2013-03-01 02:00:00
9:00 PM,69,58,60,29.85,12,East,10.4,,,,Partly Cloudy,90,2013-03-01 03:00:00
9:00 PM,69.8,59.0,68,30.00,6.2,East,10.4,-,N/A,,Scattered Clouds,90,2013-03-01 03:00:00
10:00 PM,69.8,59.0,68,30.01,6.2,East,9.2,-,N/A,,Scattered Clouds,100,2013-03-01 04:00:00
11:00 PM,69.8,59.0,68,30.00,6.2,East,6.9,-,N/A,,Mostly Cloudy,90,2013-03-01 05:00:00